Time;durP1;ratioP1;P1;durP2;ratioP2;P2;SDS_P1;SDS_P2;PMS_P1;PMS_P2;Temp;Humidity;BMP_temperature;BMP_pressure;BME280_temperature;BME280_humidity;BME280_pressure;Samples;Min_cycle;Max_cycle;Signal;HPM_P1;HPM_P2
2023/04/23 00:00:47;;;;;;;30.10;15.80;;;;;;;8.30;67.46;101105.92;107605;1250;113730;-64
2023/04/23 00:03:37;;;;;;;26.10;15.40;;;;;;;8.30;67.48;101104.70;107546;1249;109447;-63
2023/04/23 00:06:09;;;;;;;25.60;16.10;;;;;;;8.29;67.62;101103.34;107617;1249;106381;-61
2023/04/23 00:08:40;;;;;;;38.40;16.60;;;;;;;8.29;67.62;101104.45;107615;1250;99266;-61
2023/04/23 00:11:09;;;;;;;32.90;15.50;;;;;;;8.30;68.06;101107.92;107708;1250;99049;-62
2023/04/23 00:13:38;;;;;;;26.30;16.90;;;;;;;8.28;68.05;101104.98;107715;1250;112516;-61
2023/04/23 00:16:09;;;;;;;37.20;17.60;;;;;;;8.29;67.97;101107.44;107585;1250;108656;-61
2023/04/23 00:18:38;;;;;;;33.10;15.50;;;;;;;8.32;68.07;101104.91;107488;1250;107454;-63
2023/04/23 00:21:08;;;;;;;26.40;15.30;;;;;;;8.36;68.01;101107.49;107496;1253;99144;-63
2023/04/23 00:23:37;;;;;;;26.70;15.00;;;;;;;8.39;67.95;101109.09;107465;1250;99697;-63
2023/04/23 00:26:06;;;;;;;29.20;14.30;;;;;;;8.37;67.96;101108.27;107906;1248;112780;-63
2023/04/23 00:28:35;;;;;;;32.30;15.20;;;;;;;8.38;68.14;101117.52;107815;1253;109868;-62
2023/04/23 00:31:03;;;;;;;30.20;15.90;;;;;;;8.39;68.16;101116.17;107603;1256;108183;-62
2023/04/23 00:33:32;;;;;;;29.20;15.30;;;;;;;8.42;68.23;101116.69;107529;1250;99062;-62
2023/04/23 00:36:00;;;;;;;28.50;14.20;;;;;;;8.43;68.60;101119.30;107565;1250;99043;-61
2023/04/23 00:38:28;;;;;;;26.50;14.80;;;;;;;8.44;68.48;101121.93;107517;1250;113406;-62
2023/04/23 00:40:57;;;;;;;28.80;13.20;;;;;;;8.45;68.37;101121.83;107587;1250;110794;-62
2023/04/23 00:43:26;;;;;;;26.10;14.00;;;;;;;8.47;68.48;101121.15;107521;1250;107590;-62
2023/04/23 00:45:55;;;;;;;27.10;14.00;;;;;;;8.50;68.40;101122.27;107652;1251;99189;-62
2023/04/23 00:48:24;;;;;;;29.00;13.30;;;;;;;8.52;68.48;101124.96;107564;1253;99263;-61
2023/04/23 00:51:03;;;;;;;42.50;14.00;;;;;;;8.52;68.45;101124.96;107590;1250;112635;-61
2023/04/23 00:53:32;;;;;;;22.60;13.60;;;;;;;8.51;68.59;101123.80;107472;1250;109675;-62
2023/04/23 00:56:03;;;;;;;30.50;14.20;;;;;;;8.50;68.58;101128.29;107871;1254;106770;-63
2023/04/23 00:58:32;;;;;;;20.50;12.60;;;;;;;8.50;68.59;101125.48;107854;1248;99556;-63
2023/04/23 01:01:03;;;;;;;24.80;13.50;;;;;;;8.53;68.68;101123.11;107601;1249;99669;-62
2023/04/23 01:03:35;;;;;;;30.30;13.90;;;;;;;8.52;68.91;101123.35;107611;1250;112675;-62
2023/04/23 01:06:04;;;;;;;27.30;13.90;;;;;;;8.49;68.88;101124.98;107841;1249;108673;-62
2023/04/23 01:08:34;;;;;;;25.80;13.10;;;;;;;8.50;69.15;101120.84;107904;1248;107135;-62
2023/04/23 01:11:02;;;;;;;24.80;13.70;;;;;;;8.51;69.23;101121.94;107835;1248;99217;-63
2023/04/23 01:13:31;;;;;;;28.90;13.70;;;;;;;8.53;69.30;101126.50;107676;1249;99195;-63
2023/04/23 01:16:01;;;;;;;24.70;12.40;;;;;;;8.51;69.41;101125.41;107816;1253;112144;-62
2023/04/23 01:18:30;;;;;;;21.80;13.40;;;;;;;8.45;69.10;101126.65;107853;1248;110427;-62
2023/04/23 01:20:58;;;;;;;22.30;13.10;;;;;;;8.45;69.36;101123.95;107601;1250;108571;-62
2023/04/23 01:23:27;;;;;;;29.70;13.50;;;;;;;8.49;69.40;101125.89;107565;1250;99217;-62
2023/04/23 01:25:57;;;;;;;25.20;13.30;;;;;;;8.52;69.37;101117.95;107610;1250;99714;-63
2023/04/23 01:28:25;;;;;;;30.90;13.40;;;;;;;8.54;69.37;101120.13;107588;1250;113366;-63
2023/04/23 01:30:55;;;;;;;24.20;12.50;;;;;;;8.57;69.15;101122.95;107680;1248;109541;-62
2023/04/23 01:33:25;;;;;;;21.10;12.40;;;;;;;8.58;69.19;101123.80;107871;1248;107093;-63
2023/04/23 01:35:54;;;;;;;25.50;13.70;;;;;;;8.57;69.15;101121.91;107846;1248;99095;-63
2023/04/23 01:38:26;;;;;;;26.00;13.00;;;;;;;8.54;69.15;101126.55;107577;1250;99152;-64
2023/04/23 01:40:55;;;;;;;21.90;13.20;;;;;;;8.51;68.90;101123.74;107504;1250;112958;-62
2023/04/23 01:43:24;;;;;;;24.80;12.30;;;;;;;8.50;68.98;101123.88;107563;1250;109274;-62
2023/04/23 01:45:53;;;;;;;27.50;13.30;;;;;;;8.45;69.01;101125.91;107587;1250;108098;-62
2023/04/23 01:48:21;;;;;;;18.70;12.30;;;;;;;8.45;69.10;101130.58;107354;1250;99061;-63
2023/04/23 01:50:51;;;;;;;21.00;13.40;;;;;;;8.45;69.12;101128.42;107594;1249;99157;-62
2023/04/23 01:53:19;;;;;;;26.40;12.60;;;;;;;8.45;69.24;101125.92;107672;1251;113191;-63
2023/04/23 01:55:51;;;;;;;28.10;12.80;;;;;;;8.46;69.29;101126.04;107562;1249;109949;-62
2023/04/23 01:58:20;;;;;;;20.90;12.80;;;;;;;8.46;69.15;101121.24;107625;1256;107158;-62
2023/04/23 02:00:49;;;;;;;24.90;13.00;;;;;;;8.45;69.16;101123.22;107626;1251;99163;-61
2023/04/23 02:03:18;;;;;;;22.40;13.00;;;;;;;8.44;69.13;101124.59;107790;1254;99086;-62
2023/04/23 02:05:47;;;;;;;23.70;13.00;;;;;;;8.45;69.39;101125.05;107683;1251;112642;-63
2023/04/23 02:08:16;;;;;;;24.40;12.50;;;;;;;8.44;69.34;101121.52;107695;1251;109236;-61
2023/04/23 02:10:44;;;;;;;28.60;12.90;;;;;;;8.39;69.22;101121.57;107572;1251;107671;-61
2023/04/23 02:13:13;;;;;;;26.90;12.70;;;;;;;8.29;69.02;101118.36;107656;1250;99208;-62
2023/04/23 02:15:42;;;;;;;28.40;12.50;;;;;;;8.25;69.24;101118.81;107624;1250;99826;-62
2023/04/23 02:18:11;;;;;;;39.30;13.00;;;;;;;8.24;69.30;101116.94;107649;1251;113309;-62
2023/04/23 02:20:40;;;;;;;23.40;11.80;;;;;;;8.24;69.46;101117.27;107644;1251;109727;-63
2023/04/23 02:23:09;;;;;;;23.30;12.60;;;;;;;8.22;69.40;101120.16;107700;1251;107638;-62
2023/04/23 02:25:38;;;;;;;30.80;12.40;;;;;;;8.18;69.63;101118.13;107604;1251;99150;-62
2023/04/23 02:28:07;;;;;;;28.20;12.50;;;;;;;8.14;69.95;101121.02;107638;1251;99122;-62
2023/04/23 02:30:36;;;;;;;24.80;12.90;;;;;;;8.12;70.09;101125.48;107781;1250;113257;-61
2023/04/23 02:33:05;;;;;;;25.40;13.10;;;;;;;8.10;70.10;101120.62;107592;1251;108770;-63
2023/04/23 02:35:34;;;;;;;20.90;11.60;;;;;;;8.09;69.95;101125.88;107598;1251;108122;-61
2023/04/23 02:38:03;;;;;;;24.10;12.80;;;;;;;8.06;69.89;101123.23;107670;1251;99162;-63
2023/04/23 02:40:32;;;;;;;23.10;12.10;;;;;;;8.03;69.94;101123.48;107676;1250;99304;-63
2023/04/23 02:43:00;;;;;;;21.30;12.40;;;;;;;7.96;69.70;101127.52;107637;1251;113144;-63
2023/04/23 02:45:29;;;;;;;21.20;12.20;;;;;;;7.89;69.76;101130.33;107697;1250;108780;-62
2023/04/23 02:47:58;;;;;;;19.90;12.20;;;;;;;7.83;69.74;101128.27;107651;1251;108237;-63
2023/04/23 02:50:27;;;;;;;22.40;11.70;;;;;;;7.80;70.07;101128.80;107693;1250;99604;-61
2023/04/23 02:52:55;;;;;;;27.60;12.00;;;;;;;7.78;70.11;101128.24;107682;1250;99119;-62
2023/04/23 02:55:24;;;;;;;24.10;11.80;;;;;;;7.70;70.12;101130.06;107679;1250;113127;-62
2023/04/23 02:57:53;;;;;;;23.80;13.10;;;;;;;7.58;70.12;101128.92;107663;1250;109010;-62
2023/04/23 03:00:22;;;;;;;24.80;13.90;;;;;;;7.53;70.24;101133.58;107595;1250;107195;-62
2023/04/23 03:02:51;;;;;;;25.40;13.50;;;;;;;7.51;70.34;101132.66;107714;1253;99170;-61
2023/04/23 03:05:19;;;;;;;24.70;12.00;;;;;;;7.52;70.57;101131.52;107664;1251;99656;-63
2023/04/23 03:07:48;;;;;;;21.50;13.30;;;;;;;7.55;70.64;101137.41;107581;1250;112565;-62
2023/04/23 03:10:17;;;;;;;24.10;13.10;;;;;;;7.50;70.50;101134.11;107598;1249;109345;-63
2023/04/23 03:12:45;;;;;;;24.60;12.40;;;;;;;7.48;70.71;101138.39;107624;1250;107296;-62
2023/04/23 03:15:16;;;;;;;25.10;12.80;;;;;;;7.46;70.72;101141.06;107518;1249;99186;-62
2023/04/23 03:17:45;;;;;;;23.30;13.00;;;;;;;7.44;70.87;101141.39;107722;1251;99012;-61
2023/04/23 03:20:14;;;;;;;30.90;13.10;;;;;;;7.43;70.84;101140.19;107616;1250;113043;-62
2023/04/23 03:22:43;;;;;;;22.70;12.50;;;;;;;7.43;71.02;101142.81;107526;1249;109206;-61
2023/04/23 03:25:15;;;;;;;23.80;12.40;;;;;;;7.44;70.94;101138.88;107718;1249;107958;-62
2023/04/23 03:27:45;;;;;;;24.70;12.00;;;;;;;7.43;71.05;101142.88;107650;1251;99169;-62
2023/04/23 03:30:14;;;;;;;21.40;13.00;;;;;;;7.45;71.16;101145.58;107572;1251;99781;-63
2023/04/23 03:32:42;;;;;;;32.90;12.60;;;;;;;7.46;71.33;101148.73;107673;1251;112282;-62
2023/04/23 03:35:11;;;;;;;26.20;11.90;;;;;;;7.46;71.28;101144.78;107724;1251;110055;-63
2023/04/23 03:37:42;;;;;;;23.40;11.80;;;;;;;7.48;71.41;101140.00;107522;1250;108470;-61
2023/04/23 03:40:11;;;;;;;31.00;11.60;;;;;;;7.51;71.51;101144.58;107606;1250;99092;-62
2023/04/23 03:42:41;;;;;;;24.30;11.90;;;;;;;7.55;71.65;101149.86;107685;1251;99132;-63
2023/04/23 03:45:12;;;;;;;24.90;12.50;;;;;;;7.60;71.70;101150.59;107608;1256;112799;-63
2023/04/23 03:47:41;;;;;;;19.90;11.30;;;;;;;7.64;71.93;101151.72;107659;1250;110405;-61
2023/04/23 03:50:13;;;;;;;30.80;11.80;;;;;;;7.67;71.74;101151.52;107541;1251;107920;-63
2023/04/23 03:52:43;;;;;;;25.30;12.60;;;;;;;7.71;72.11;101153.20;107577;1250;99244;-63
2023/04/23 03:55:16;;;;;;;29.20;12.20;;;;;;;7.76;72.03;101156.46;107544;1250;99273;-62
2023/04/23 03:57:46;;;;;;;22.60;11.50;;;;;;;7.80;71.92;101162.73;107599;1256;113379;-63
2023/04/23 04:00:23;;;;;;;19.50;12.00;;;;;;;7.85;71.95;101162.05;107523;1250;110552;-62
2023/04/23 04:02:52;;;;;;;31.10;12.60;;;;;;;7.89;71.95;101165.20;107570;1249;108218;-61
2023/04/23 04:05:22;;;;;;;18.30;11.50;;;;;;;7.91;71.64;101166.80;107581;1250;99218;-62
2023/04/23 04:07:54;;;;;;;21.90;12.50;;;;;;;7.94;71.85;101166.39;107514;1251;99112;-64
2023/04/23 04:10:24;;;;;;;28.00;13.10;;;;;;;8.01;72.05;101168.95;107559;1250;113021;-63
2023/04/23 04:12:54;;;;;;;25.30;12.50;;;;;;;8.07;72.03;101171.94;107599;1249;108949;-61
2023/04/23 04:15:23;;;;;;;24.00;12.70;;;;;;;8.10;71.83;101173.18;107701;1250;108700;-62
2023/04/23 04:17:52;;;;;;;26.60;12.70;;;;;;;8.14;71.79;101173.59;107571;1250;99207;-62
2023/04/23 04:20:20;;;;;;;30.00;14.20;;;;;;;8.22;72.07;101174.13;107661;1257;99238;-61
2023/04/23 04:22:49;;;;;;;28.50;13.70;;;;;;;8.28;72.01;101183.48;107673;1251;112747;-65
2023/04/23 04:25:17;;;;;;;26.20;14.40;;;;;;;8.34;71.99;101183.24;107544;1250;109737;-63
2023/04/23 04:27:46;;;;;;;25.50;14.70;;;;;;;8.36;71.66;101186.28;107538;1251;109634;-62
2023/04/23 04:30:15;;;;;;;24.30;14.10;;;;;;;8.37;71.35;101186.41;107746;1248;99144;-61
2023/04/23 04:32:45;;;;;;;31.10;15.10;;;;;;;8.37;71.44;101184.41;107885;1248;99054;-62
2023/04/23 04:35:13;;;;;;;26.40;15.90;;;;;;;8.38;71.23;101185.83;107864;1251;111570;-62
2023/04/23 04:37:42;;;;;;;35.30;15.60;;;;;;;8.37;70.96;101182.80;107590;1251;110869;-63
2023/04/23 04:40:11;;;;;;;29.50;16.20;;;;;;;8.38;70.86;101187.80;107549;1250;108702;-62
2023/04/23 04:42:40;;;;;;;35.70;17.40;;;;;;;8.37;70.86;101190.38;107790;1251;99246;-63
2023/04/23 04:45:09;;;;;;;35.90;16.40;;;;;;;8.35;70.81;101189.63;107781;1250;99058;-62
2023/04/23 04:47:37;;;;;;;28.80;15.70;;;;;;;8.34;70.65;101192.92;107743;1251;111315;-62
2023/04/23 04:50:06;;;;;;;24.80;16.20;;;;;;;8.35;70.83;101195.33;107603;1251;109482;-62
2023/04/23 04:52:35;;;;;;;24.10;15.90;;;;;;;8.38;71.15;101197.09;107754;1251;108615;-63
2023/04/23 04:55:08;;;;;;;26.70;15.70;;;;;;;8.40;71.20;101197.25;107838;1249;99129;-61
2023/04/23 04:57:36;;;;;;;27.80;16.50;;;;;;;8.43;71.10;101201.36;107825;1251;99711;-61
2023/04/23 05:00:31;;;;;;;27.30;16.20;;;;;;;8.44;71.16;101200.87;107790;1250;113192;-63
2023/04/23 05:03:00;;;;;;;26.70;16.50;;;;;;;8.49;71.45;101204.55;107657;1253;110636;-63
2023/04/23 05:05:28;;;;;;;29.90;17.60;;;;;;;8.52;71.40;101203.29;107600;1250;105955;-62
2023/04/23 05:08:03;;;;;;;29.20;17.00;;;;;;;8.53;71.33;101205.31;107582;1250;99078;-64
2023/04/23 05:10:31;;;;;;;31.50;17.00;;;;;;;8.53;71.31;101208.16;107524;1250;99252;-62
2023/04/23 05:12:59;;;;;;;34.40;16.50;;;;;;;8.54;71.48;101210.23;107589;1250;112706;-62
2023/04/23 05:15:28;;;;;;;29.30;16.60;;;;;;;8.56;71.56;101208.81;107746;1250;110122;-64
2023/04/23 05:17:57;;;;;;;31.90;15.70;;;;;;;8.60;71.71;101211.23;107569;1251;107318;-63
2023/04/23 05:20:26;;;;;;;26.20;15.70;;;;;;;8.64;71.84;101209.88;107593;1251;99154;-61
2023/04/23 05:22:54;;;;;;;33.30;15.90;;;;;;;8.67;72.13;101211.79;107555;1249;101028;-62
2023/04/23 05:25:22;;;;;;;38.00;16.50;;;;;;;8.73;72.25;101211.14;107621;1250;113151;-62
2023/04/23 05:27:51;;;;;;;25.20;15.80;;;;;;;8.81;72.15;101211.86;107695;1251;109633;-62
2023/04/23 05:30:20;;;;;;;24.70;14.60;;;;;;;8.87;71.97;101214.42;107778;1250;107671;-62
2023/04/23 05:32:49;;;;;;;31.40;15.70;;;;;;;8.94;71.77;101213.95;107586;1251;99170;-64
2023/04/23 05:35:18;;;;;;;25.40;15.40;;;;;;;9.01;71.60;101212.00;107574;1253;99037;-62
2023/04/23 05:37:47;;;;;;;24.80;15.70;;;;;;;9.10;71.43;101216.88;107565;1248;113416;-62
2023/04/23 05:40:16;;;;;;;24.10;13.90;;;;;;;9.21;71.34;101218.38;107855;1251;109704;-63
2023/04/23 05:42:45;;;;;;;22.50;13.90;;;;;;;9.30;70.70;101217.88;107644;1250;108609;-63
2023/04/23 05:45:13;;;;;;;28.70;13.30;;;;;;;9.37;70.04;101221.40;107546;1250;99159;-63
2023/04/23 05:47:42;;;;;;;22.60;11.80;;;;;;;9.46;69.54;101220.73;107688;1251;99068;-62
2023/04/23 05:50:10;;;;;;;25.50;11.70;;;;;;;9.56;69.45;101220.39;107674;1251;113485;-62
2023/04/23 05:52:38;;;;;;;48.50;25.00;;;;;;;9.66;68.66;101219.06;107679;1250;109878;-61
2023/04/23 05:55:08;;;;;;;23.50;13.70;;;;;;;9.76;67.38;101224.77;107618;1254;108694;-62
2023/04/23 05:57:38;;;;;;;21.40;11.60;;;;;;;9.84;67.21;101223.02;107826;1248;99169;-63
2023/04/23 06:00:13;;;;;;;31.90;13.00;;;;;;;9.92;66.53;101223.11;107619;1248;99951;-62
2023/04/23 06:02:41;;;;;;;23.10;12.40;;;;;;;9.99;66.42;101225.24;107611;1248;112569;-62
2023/04/23 06:05:11;;;;;;;26.50;12.40;;;;;;;10.07;66.08;101225.39;107945;1249;110213;-63
2023/04/23 06:07:41;;;;;;;25.00;12.00;;;;;;;10.15;66.16;101229.20;107907;1248;107111;-61
2023/04/23 06:10:10;;;;;;;15.60;11.20;;;;;;;10.24;65.80;101232.28;107577;1249;99166;-62
2023/04/23 06:12:40;;;;;;;26.60;11.70;;;;;;;10.32;65.36;101229.33;107723;1251;99053;-63
2023/04/23 06:15:10;;;;;;;25.90;12.50;;;;;;;10.41;63.93;101231.51;107652;1250;112952;-61
2023/04/23 06:17:38;;;;;;;27.90;12.90;;;;;;;10.50;63.30;101230.09;107656;1253;108909;-62
2023/04/23 06:20:09;;;;;;;18.00;11.30;;;;;;;10.55;62.87;101231.45;107639;1250;108111;-63
2023/04/23 06:22:38;;;;;;;28.30;13.20;;;;;;;10.62;62.49;101229.60;107727;1254;99509;-63
2023/04/23 06:25:07;;;;;;;28.30;14.10;;;;;;;10.70;62.60;101228.07;107926;1248;99774;-62
2023/04/23 06:27:36;;;;;;;26.00;12.60;;;;;;;10.78;62.38;101229.20;107730;1251;112159;-61
2023/04/23 06:30:11;;;;;;;22.60;12.40;;;;;;;10.86;62.30;101224.59;107766;1254;108996;-61
2023/04/23 06:32:40;;;;;;;20.80;11.20;;;;;;;10.93;62.37;101223.45;107796;1250;107642;-63
2023/04/23 06:35:08;;;;;;;28.40;12.90;;;;;;;11.00;62.09;101221.68;107624;1254;99343;-62
2023/04/23 06:37:37;;;;;;;26.50;13.60;;;;;;;11.07;61.97;101225.88;107722;1251;99691;-62
2023/04/23 06:40:06;;;;;;;24.40;13.60;;;;;;;11.17;61.94;101228.31;107735;1251;113097;-62
2023/04/23 06:42:34;;;;;;;22.20;12.70;;;;;;;11.26;61.41;101223.25;107832;1253;108699;-63
2023/04/23 06:45:23;;;;;;;27.20;13.30;;;;;;;11.35;61.17;101222.67;107879;1253;108809;-64
2023/04/23 06:47:52;;;;;;;25.90;11.60;;;;;;;11.43;61.48;101225.80;107538;1251;99173;-63
2023/04/23 06:50:20;;;;;;;23.00;12.60;;;;;;;11.51;60.93;101225.33;107849;1251;99732;-62
2023/04/23 06:52:49;;;;;;;24.20;12.00;;;;;;;11.60;59.41;101224.89;107692;1248;113127;-62
2023/04/23 06:55:17;;;;;;;20.60;12.40;;;;;;;11.70;58.54;101222.97;107957;1252;109804;-63
2023/04/23 06:57:46;;;;;;;21.90;11.10;;;;;;;11.80;59.44;101222.09;107880;1249;108188;-63
2023/04/23 07:00:14;;;;;;;26.40;11.10;;;;;;;11.90;59.06;101224.84;107867;1251;99166;-62
2023/04/23 07:02:46;;;;;;;21.70;11.50;;;;;;;12.03;59.31;101222.52;107646;1251;99265;-64
2023/04/23 07:05:16;;;;;;;17.20;11.00;;;;;;;12.13;58.71;101221.02;107792;1251;112416;-64
2023/04/23 07:07:46;;;;;;;24.30;14.40;;;;;;;12.24;57.73;101221.23;107843;1249;110138;-63
2023/04/23 07:10:15;;;;;;;18.40;11.10;;;;;;;12.34;57.63;101217.98;107623;1254;108078;-65
2023/04/23 07:12:45;;;;;;;24.20;11.70;;;;;;;12.44;57.39;101221.80;107583;1251;99083;-64
2023/04/23 07:15:14;;;;;;;24.90;12.40;;;;;;;12.52;56.94;101221.60;107771;1251;99179;-62
2023/04/23 07:17:43;;;;;;;31.80;16.00;;;;;;;12.61;56.03;101220.02;107752;1251;113227;-63
2023/04/23 07:20:11;;;;;;;29.90;14.20;;;;;;;12.72;55.84;101221.29;107797;1251;110150;-63
2023/04/23 07:22:40;;;;;;;24.60;11.50;;;;;;;12.82;55.94;101219.96;107649;1251;109536;-63
2023/04/23 07:25:09;;;;;;;20.10;9.70;;;;;;;12.92;55.73;101220.90;107663;1251;99236;-63
2023/04/23 07:27:38;;;;;;;16.50;10.00;;;;;;;13.01;54.92;101222.92;107580;1253;99043;-62
2023/04/23 07:30:08;;;;;;;29.90;9.70;;;;;;;13.11;54.77;101219.71;107696;1251;113118;-63
2023/04/23 07:32:36;;;;;;;19.40;8.80;;;;;;;13.20;52.89;101217.61;107692;1250;109752;-64
2023/04/23 07:35:05;;;;;;;21.60;9.70;;;;;;;13.30;53.25;101215.64;107590;1253;108509;-64
2023/04/23 07:37:35;;;;;;;17.80;8.40;;;;;;;13.42;53.28;101220.98;107565;1250;99170;-63
2023/04/23 07:40:06;;;;;;;18.30;10.60;;;;;;;13.53;52.64;101215.11;107642;1251;99182;-63
2023/04/23 07:42:34;;;;;;;16.60;8.80;;;;;;;13.64;51.94;101213.92;107693;1253;112564;-64
2023/04/23 07:45:04;;;;;;;16.30;9.80;;;;;;;13.77;52.54;101212.84;107912;1251;109358;-63
2023/04/23 07:47:33;;;;;;;16.90;8.40;;;;;;;13.88;51.93;101211.41;107582;1254;107630;-63
2023/04/23 07:50:01;;;;;;;16.40;8.70;;;;;;;14.03;51.12;101213.84;107647;1251;99061;-64
2023/04/23 07:52:30;;;;;;;20.00;8.80;;;;;;;14.21;51.12;101209.91;107560;1251;99791;-63
2023/04/23 07:54:58;;;;;;;18.20;8.80;;;;;;;14.37;51.42;101204.56;107699;1251;113643;-63
2023/04/23 07:57:26;;;;;;;19.60;9.20;;;;;;;14.52;51.36;101205.12;107584;1253;109856;-64
2023/04/23 07:59:54;;;;;;;30.00;14.30;;;;;;;14.65;50.76;101199.66;106281;1250;1628195;-63
2023/04/23 08:02:25;;;;;;;19.50;8.70;;;;;;;14.78;50.19;101202.19;107620;1251;99160;-63
2023/04/23 08:04:54;;;;;;;17.00;9.10;;;;;;;14.91;49.14;101196.65;107576;1254;100206;-63
2023/04/23 08:07:23;;;;;;;16.90;7.80;;;;;;;15.05;49.04;101194.63;107626;1253;112225;-63
2023/04/23 08:09:51;;;;;;;22.10;7.40;;;;;;;15.22;47.98;101194.26;107610;1251;110025;-63
2023/04/23 08:12:20;;;;;;;21.70;9.40;;;;;;;15.35;47.93;101193.80;107536;1254;107818;-65
2023/04/23 08:14:50;;;;;;;21.70;7.60;;;;;;;15.48;47.43;101195.34;107860;1251;99266;-65
2023/04/23 08:17:20;;;;;;;17.40;8.00;;;;;;;15.60;47.41;101186.72;107691;1252;99688;-64
2023/04/23 08:19:49;;;;;;;20.50;7.90;;;;;;;15.74;47.22;101189.95;107768;1251;113533;-64
2023/04/23 08:22:18;;;;;;;14.10;6.80;;;;;;;15.92;46.15;101181.66;107645;1251;108876;-63
2023/04/23 08:24:47;;;;;;;20.30;7.20;;;;;;;16.09;45.92;101181.30;107732;1251;108544;-64
2023/04/23 08:27:16;;;;;;;14.50;7.10;;;;;;;16.26;45.70;101174.09;107802;1251;99165;-63
2023/04/23 08:29:45;;;;;;;17.70;5.70;;;;;;;16.44;45.59;101181.09;107703;1251;99856;-64
2023/04/23 08:32:14;;;;;;;12.90;4.20;;;;;;;16.61;43.18;101178.16;107540;1253;114621;-64
2023/04/23 08:34:42;;;;;;;15.70;5.20;;;;;;;16.78;40.76;101179.00;107688;1254;108713;-64
2023/04/23 08:37:11;;;;;;;17.90;4.60;;;;;;;16.98;39.95;101170.80;107794;1250;108002;-65
2023/04/23 08:39:57;;;;;;;10.00;5.10;;;;;;;17.21;40.98;101173.70;107602;1251;99237;-65
2023/04/23 08:42:35;;;;;;;13.60;5.80;;;;;;;17.40;40.89;101173.63;107596;1253;99871;-65
2023/04/23 08:45:04;;;;;;;8.60;5.20;;;;;;;17.59;40.36;101171.48;107835;1251;113169;-63
2023/04/23 08:47:35;;;;;;;13.70;5.40;;;;;;;17.77;38.15;101170.22;107847;1251;109074;-64
2023/04/23 08:50:04;;;;;;;12.60;4.60;;;;;;;17.91;39.61;101167.30;107793;1252;108677;-63
2023/04/23 08:52:36;;;;;;;13.20;5.00;;;;;;;18.10;39.38;101164.97;107708;1251;99049;-64
2023/04/23 08:55:10;;;;;;;10.30;4.80;;;;;;;18.31;39.33;101158.10;107879;1251;99165;-66
2023/04/23 08:57:39;;;;;;;10.00;4.50;;;;;;;18.52;37.95;101157.65;107611;1253;111765;-63
2023/04/23 09:00:10;;;;;;;18.40;4.90;;;;;;;18.74;38.53;101155.25;107721;1251;110289;-66
2023/04/23 09:02:42;;;;;;;17.40;4.70;;;;;;;18.99;38.30;101149.48;107847;1251;107568;-64
2023/04/23 09:05:12;;;;;;;11.30;4.60;;;;;;;19.25;37.32;101149.17;107734;1250;99260;-63
2023/04/23 09:07:41;;;;;;;13.40;5.50;;;;;;;19.51;37.22;101145.67;107869;1253;99039;-65
2023/04/23 09:10:20;;;;;;;15.30;4.30;;;;;;;19.75;36.23;101141.63;107588;1251;112547;-65
2023/04/23 09:12:58;;;;;;;15.10;4.30;;;;;;;20.02;33.84;101141.90;107551;1251;109709;-66
2023/04/23 09:15:30;;;;;;;13.70;3.90;;;;;;;20.21;34.61;101134.92;107667;1251;108040;-64
2023/04/23 09:18:09;;;;;;;17.80;4.30;;;;;;;20.51;33.94;101135.77;107487;1251;99223;-63
2023/04/23 09:20:38;;;;;;;11.10;3.90;;;;;;;20.81;33.80;101135.52;107678;1251;99672;-64
2023/04/23 09:23:14;;;;;;;19.00;4.60;;;;;;;21.15;31.29;101132.63;107717;1251;113621;-66
2023/04/23 09:25:45;;;;;;;7.20;3.80;;;;;;;21.49;31.95;101129.98;107725;1251;109355;-69
2023/04/23 09:28:43;;;;;;;10.00;4.00;;;;;;;21.93;31.49;101128.11;107723;1251;107826;-65
2023/04/23 09:31:21;;;;;;;6.90;3.50;;;;;;;22.47;32.24;101122.65;107621;1251;99167;-65
2023/04/23 09:33:52;;;;;;;7.60;3.20;;;;;;;23.03;29.43;101119.63;107530;1251;99218;-65
2023/04/23 09:36:22;;;;;;;7.30;3.30;;;;;;;23.58;28.23;101119.72;107616;1253;113596;-65
2023/04/23 09:38:57;;;;;;;7.00;3.20;;;;;;;24.31;28.30;101116.27;107680;1250;109096;-64
2023/04/23 09:41:28;;;;;;;13.80;4.30;;;;;;;25.14;27.74;101117.17;107818;1251;107216;-65
2023/04/23 09:43:58;;;;;;;12.70;3.20;;;;;;;25.85;26.67;101113.99;107777;1251;99080;-64
2023/04/23 09:46:37;;;;;;;6.80;2.50;;;;;;;26.46;25.94;101113.70;107790;1251;99201;-64
2023/04/23 09:49:07;;;;;;;6.90;2.50;;;;;;;27.07;25.45;101112.64;107703;1251;113406;-64
2023/04/23 09:51:43;;;;;;;7.50;2.00;;;;;;;27.62;24.54;101107.63;107589;1252;109050;-64
2023/04/23 09:54:21;;;;;;;10.20;2.80;;;;;;;28.17;22.68;101105.48;107621;1250;108020;-63
2023/04/23 09:56:56;;;;;;;3.60;2.50;;;;;;;28.68;21.55;101108.95;107797;1251;99054;-65
2023/04/23 09:59:29;;;;;;;6.80;2.20;;;;;;;28.94;19.90;101109.45;107730;1251;99755;-65
2023/04/23 10:02:16;;;;;;;6.80;2.60;;;;;;;28.84;21.82;101103.86;107738;1250;113443;-63
2023/04/23 10:04:51;;;;;;;12.70;2.10;;;;;;;29.10;21.67;101104.45;107830;1251;109021;-65
2023/04/23 10:07:32;;;;;;;6.10;2.00;;;;;;;29.21;20.37;101111.84;107621;1251;108105;-65
2023/04/23 10:10:00;;;;;;;10.70;2.30;;;;;;;29.04;19.78;101120.58;107785;1251;99185;-65
2023/04/23 10:12:28;;;;;;;7.10;1.60;;;;;;;28.63;19.71;101114.23;107758;1251;99728;-66
2023/04/23 10:15:17;;;;;;;4.50;1.80;;;;;;;28.38;19.39;101111.55;107690;1251;112493;-67
2023/04/23 10:17:47;;;;;;;3.00;1.80;;;;;;;28.24;20.22;101103.27;107902;1251;108738;-65
2023/04/23 10:20:16;;;;;;;5.50;1.90;;;;;;;28.33;20.56;101103.27;107872;1249;108586;-66
2023/04/23 10:22:45;;;;;;;4.00;1.30;;;;;;;28.22;20.40;101102.45;107591;1250;99200;-67
2023/04/23 10:25:14;;;;;;;4.30;3.10;;;;;;;28.03;20.63;101102.12;107830;1251;99723;-67
2023/04/23 10:27:46;;;;;;;9.70;2.30;;;;;;;27.86;19.81;101107.55;107744;1251;112592;-66
2023/04/23 10:30:21;;;;;;;4.90;1.80;;;;;;;27.39;20.39;101098.88;107713;1253;111180;-64
2023/04/23 10:32:50;;;;;;;4.20;1.70;;;;;;;27.30;20.53;101095.89;107737;1251;107516;-64
2023/04/23 10:35:19;;;;;;;4.70;1.80;;;;;;;27.29;20.75;101094.98;107809;1249;99321;-65
2023/04/23 10:37:48;;;;;;;3.80;1.90;;;;;;;27.49;19.96;101089.66;107766;1251;99232;-63
2023/04/23 10:40:28;;;;;;;9.80;1.70;;;;;;;27.72;20.45;101084.75;107570;1251;113477;-67
2023/04/23 10:42:58;;;;;;;2.80;1.50;;;;;;;28.36;20.80;101080.95;107567;1250;109568;-65
2023/04/23 10:45:30;;;;;;;5.70;2.10;;;;;;;29.09;19.43;101080.51;107746;1251;108213;-66
2023/04/23 10:47:59;;;;;;;2.80;1.80;;;;;;;29.49;18.38;101080.34;107720;1251;99166;-66
2023/04/23 10:50:30;;;;;;;3.10;1.60;;;;;;;29.68;17.84;101078.28;107718;1251;99682;-67
2023/04/23 10:52:58;;;;;;;3.10;1.70;;;;;;;30.11;17.99;101070.27;107720;1250;113483;-65
2023/04/23 10:55:29;;;;;;;3.50;1.80;;;;;;;30.43;17.77;101071.15;107771;1251;109671;-65
2023/04/23 10:58:03;;;;;;;4.00;1.80;;;;;;;30.68;16.93;101068.19;107677;1252;108617;-65
2023/04/23 11:00:40;;;;;;;2.40;1.40;;;;;;;30.94;17.55;101071.13;107744;1251;99192;-65
2023/04/23 11:03:38;;;;;;;4.90;1.60;;;;;;;31.27;17.33;101067.64;107615;1250;99199;-66
2023/04/23 11:06:16;;;;;;;7.80;1.60;;;;;;;31.37;16.67;101067.42;107628;1254;113524;-67
2023/04/23 11:08:52;;;;;;;5.80;1.80;;;;;;;31.87;17.84;101066.05;107676;1251;109746;-65
2023/04/23 11:11:42;;;;;;;9.00;1.30;;;;;;;32.50;17.08;101066.73;107663;1249;108486;-66
2023/04/23 11:14:14;;;;;;;4.10;1.60;;;;;;;32.82;16.29;101066.65;107687;1251;99308;-65
2023/04/23 11:16:43;;;;;;;6.80;1.50;;;;;;;33.05;16.74;101064.80;107834;1249;99086;-65
2023/04/23 11:19:14;;;;;;;10.30;1.90;;;;;;;33.05;16.59;101060.06;107868;1251;112548;-65